Time;durP1;ratioP1;P1;durP2;ratioP2;P2;SDS_P1;SDS_P2;PMS_P1;PMS_P2;Temp;Humidity;BMP_temperature;BMP_pressure;BME280_temperature;BME280_humidity;BME280_pressure;Samples;Min_cycle;Max_cycle;Signal;HPM_P1;HPM_P2
2021/07/02 00:00:32;;;;;;;10.40;8.70;;;14.50;99.90;;;;;;4862026;29;20471;-74
2021/07/02 00:03:00;;;;;;;11.60;9.77;;;14.50;99.90;;;;;;4861987;29;20835;-74
2021/07/02 00:05:27;;;;;;;12.87;9.17;;;14.50;99.90;;;;;;4862430;29;20427;-74
2021/07/02 00:07:54;;;;;;;11.87;9.20;;;14.50;99.90;;;;;;4859977;29;20482;-74
2021/07/02 00:10:21;;;;;;;14.33;9.57;;;14.40;99.90;;;;;;4861490;29;20428;-74
2021/07/02 00:12:48;;;;;;;12.60;8.90;;;14.40;99.90;;;;;;4861704;29;20468;-74
2021/07/02 00:15:15;;;;;;;18.50;11.30;;;14.40;99.90;;;;;;4861733;29;20439;-73
2021/07/02 00:17:42;;;;;;;14.47;9.87;;;14.30;99.90;;;;;;4844900;29;20468;-74
2021/07/02 00:20:09;;;;;;;16.10;10.97;;;14.30;99.90;;;;;;4862196;29;20471;-74
2021/07/02 00:22:36;;;;;;;10.77;9.10;;;14.30;99.90;;;;;;4861087;29;20511;-73
2021/07/02 00:25:05;;;;;;;15.47;9.70;;;14.30;99.90;;;;;;4862163;29;20496;-73
2021/07/02 00:27:33;;;;;;;15.00;9.90;;;14.30;99.90;;;;;;4861204;29;20471;-74
2021/07/02 00:30:00;;;;;;;13.37;8.67;;;14.20;99.90;;;;;;4845670;29;20420;-74
2021/07/02 00:32:27;;;;;;;15.27;10.53;;;14.20;99.90;;;;;;4860991;29;21030;-74
2021/07/02 00:34:54;;;;;;;13.13;8.57;;;14.30;99.90;;;;;;4862047;29;20429;-74
2021/07/02 00:37:21;;;;;;;17.97;10.10;;;14.30;99.90;;;;;;4860650;29;20561;-74
2021/07/02 00:39:48;;;;;;;15.33;11.20;;;14.20;99.90;;;;;;4842427;29;20476;-74
2021/07/02 00:42:14;;;;;;;13.03;9.50;;;14.20;99.90;;;;;;4842699;29;20848;-74
2021/07/02 00:44:50;;;;;;;15.03;9.63;;;14.10;99.90;;;;;;4843335;29;20991;-74
2021/07/02 00:47:18;;;;;;;13.00;8.90;;;14.10;99.90;;;;;;4845237;29;20478;-74
2021/07/02 00:49:47;;;;;;;13.27;8.93;;;14.00;99.90;;;;;;4844921;29;20440;-74
2021/07/02 00:52:15;;;;;;;15.90;9.53;;;14.00;99.90;;;;;;4859825;29;20483;-74
2021/07/02 00:54:45;;;;;;;14.87;9.63;;;13.90;99.90;;;;;;4827176;29;21034;-74
2021/07/02 00:57:13;;;;;;;15.33;9.90;;;13.90;99.90;;;;;;4841333;29;20475;-74
2021/07/02 00:59:42;;;;;;;16.20;9.90;;;13.90;99.90;;;;;;4841928;29;20486;-74
2021/07/02 01:02:14;;;;;;;11.73;9.97;;;13.90;99.90;;;;;;4830076;29;20482;-74
2021/07/02 01:04:43;;;;;;;15.10;10.30;;;13.90;99.90;;;;;;4861538;29;20486;-74
2021/07/02 01:07:11;;;;;;;10.90;9.80;;;13.90;99.90;;;;;;4859273;29;20883;-74
2021/07/02 01:09:42;;;;;;;13.80;8.97;;;13.80;99.90;;;;;;4861079;29;20447;-73
2021/07/02 01:12:13;;;;;;;12.10;8.97;;;13.80;99.90;;;;;;4859689;29;20479;-74
2021/07/02 01:14:43;;;;;;;13.20;9.30;;;13.70;99.90;;;;;;4845177;29;20450;-74
2021/07/02 01:17:12;;;;;;;14.13;9.80;;;13.70;99.90;;;;;;4859890;29;20834;-74
2021/07/02 01:19:51;;;;;;;11.87;9.20;;;13.70;99.90;;;;;;4861127;29;20512;-73
2021/07/02 01:22:27;;;;;;;19.13;9.83;;;13.70;99.90;;;;;;4828858;29;21079;-74
2021/07/02 01:24:59;;;;;;;13.23;10.20;;;13.70;99.90;;;;;;4842830;29;20425;-74
2021/07/02 01:27:28;;;;;;;13.40;9.03;;;13.60;99.90;;;;;;4841815;29;20482;-74
2021/07/02 01:29:58;;;;;;;15.63;10.27;;;13.60;99.90;;;;;;4827016;29;20498;-74
2021/07/02 01:32:25;;;;;;;9.50;8.40;;;13.50;99.90;;;;;;4860572;29;20490;-74
2021/07/02 01:34:53;;;;;;;12.60;8.90;;;13.50;99.90;;;;;;4844221;29;20462;-73
2021/07/02 01:37:21;;;;;;;22.10;10.90;;;13.50;99.90;;;;;;4843211;29;20474;-74
2021/07/02 01:39:47;;;;;;;20.20;10.40;;;13.60;99.90;;;;;;4860603;29;20481;-73
2021/07/02 01:42:15;;;;;;;12.47;9.80;;;13.50;99.90;;;;;;4843756;29;20472;-74
2021/07/02 01:44:43;;;;;;;16.60;10.10;;;13.60;99.90;;;;;;4841299;29;20428;-74
2021/07/02 01:47:12;;;;;;;12.70;10.93;;;13.60;99.90;;;;;;4838078;29;20556;-74
2021/07/02 01:49:39;;;;;;;13.73;10.97;;;13.50;99.90;;;;;;4842238;29;20436;-74
2021/07/02 01:52:06;;;;;;;12.07;9.23;;;13.50;99.90;;;;;;4841615;29;20476;-74
2021/07/02 01:54:33;;;;;;;14.30;10.60;;;13.50;99.90;;;;;;4859155;29;21033;-74
2021/07/02 01:57:08;;;;;;;13.00;9.80;;;13.50;99.90;;;;;;4843048;29;20554;-74
2021/07/02 01:59:37;;;;;;;14.37;10.43;;;13.50;99.90;;;;;;4844075;29;20858;-73
2021/07/02 02:02:07;;;;;;;13.10;9.80;;;13.60;99.90;;;;;;4858938;29;20483;-73
2021/07/02 02:04:35;;;;;;;16.23;9.40;;;13.50;99.90;;;;;;4859168;29;20441;-73
2021/07/02 02:07:02;;;;;;;14.83;10.83;;;13.50;99.90;;;;;;4842868;29;20988;-73
2021/07/02 02:09:29;;;;;;;16.00;10.00;;;13.40;99.90;;;;;;4859644;29;20452;-74
2021/07/02 02:11:58;;;;;;;15.43;10.63;;;13.30;99.90;;;;;;4858430;29;21014;-73
2021/07/02 02:14:34;;;;;;;14.23;10.50;;;13.30;99.90;;;;;;4859075;29;20447;-74
2021/07/02 02:17:04;;;;;;;15.90;10.23;;;13.20;99.90;;;;;;4842196;29;20510;-73
2021/07/02 02:19:32;;;;;;;14.43;9.50;;;13.10;99.90;;;;;;4860062;29;20469;-74
2021/07/02 02:21:59;;;;;;;12.17;8.67;;;13.10;99.90;;;;;;4859420;29;20475;-74
2021/07/02 02:24:32;;;;;;;13.57;8.97;;;13.00;99.90;;;;;;4843098;29;20454;-74
2021/07/02 02:26:59;;;;;;;13.33;9.23;;;12.90;99.90;;;;;;4859293;29;20517;-74
2021/07/02 02:29:26;;;;;;;12.17;8.93;;;12.90;99.90;;;;;;4860033;29;20495;-74
2021/07/02 02:31:53;;;;;;;15.67;8.70;;;12.80;99.90;;;;;;4842752;29;20478;-74
2021/07/02 02:34:21;;;;;;;22.13;9.87;;;12.70;99.90;;;;;;4859324;29;20460;-73
2021/07/02 02:36:50;;;;;;;13.07;9.27;;;12.70;99.90;;;;;;4858185;29;20525;-74
2021/07/02 02:39:17;;;;;;;9.97;8.53;;;12.70;99.90;;;;;;4842486;29;20612;-74
2021/07/02 02:41:44;;;;;;;12.37;9.07;;;12.60;99.90;;;;;;4859218;29;20478;-74
2021/07/02 02:44:11;;;;;;;15.43;9.03;;;12.60;99.90;;;;;;4843509;29;20866;-73
2021/07/02 02:46:40;;;;;;;9.93;8.93;;;12.60;99.90;;;;;;4830588;29;21103;-74
2021/07/02 02:49:07;;;;;;;10.63;8.83;;;12.60;99.90;;;;;;4841136;29;20914;-74
2021/07/02 02:51:35;;;;;;;15.27;9.17;;;12.60;99.90;;;;;;4840753;29;20467;-74
2021/07/02 02:54:02;;;;;;;14.63;8.63;;;12.50;99.90;;;;;;4838004;29;20456;-74
2021/07/02 02:56:29;;;;;;;12.97;9.70;;;12.50;99.90;;;;;;4842785;29;20896;-74
2021/07/02 02:58:59;;;;;;;13.43;8.40;;;12.50;99.90;;;;;;4859146;29;20425;-74
2021/07/02 03:01:27;;;;;;;15.67;9.40;;;12.50;99.90;;;;;;4842087;29;20522;-74
2021/07/02 03:03:54;;;;;;;12.50;7.80;;;12.40;99.90;;;;;;4858926;29;20437;-74
2021/07/02 03:06:21;;;;;;;13.00;9.23;;;12.40;99.90;;;;;;4858012;29;20486;-74
2021/07/02 03:08:48;;;;;;;12.03;9.53;;;12.40;99.90;;;;;;4846887;29;20882;-74
2021/07/02 03:11:21;;;;;;;13.67;8.90;;;12.40;99.90;;;;;;4840512;29;20519;-74
2021/07/02 03:13:49;;;;;;;16.13;10.00;;;12.30;99.90;;;;;;4810886;29;20441;-74
2021/07/02 03:16:19;;;;;;;13.40;9.50;;;12.30;99.90;;;;;;4829068;29;20879;-74
2021/07/02 03:18:48;;;;;;;13.60;9.80;;;12.30;99.90;;;;;;4846923;29;20469;-74
2021/07/02 03:21:16;;;;;;;12.07;9.30;;;12.30;99.90;;;;;;4862671;29;20531;-74
2021/07/02 03:23:43;;;;;;;12.53;8.93;;;12.30;99.90;;;;;;4846290;29;20872;-74
2021/07/02 03:26:12;;;;;;;14.20;9.77;;;12.30;99.90;;;;;;4862525;29;20476;-74
2021/07/02 03:28:40;;;;;;;14.50;9.30;;;12.30;99.90;;;;;;4846559;29;20492;-74
2021/07/02 03:31:07;;;;;;;15.63;9.77;;;12.30;99.90;;;;;;4862198;29;20974;-74
2021/07/02 03:33:35;;;;;;;11.90;9.10;;;12.30;99.90;;;;;;4861730;29;20480;-74
2021/07/02 03:36:03;;;;;;;13.23;9.60;;;12.20;99.90;;;;;;4845703;29;20432;-74
2021/07/02 03:38:30;;;;;;;13.30;9.83;;;12.30;99.90;;;;;;4847871;29;20453;-74
2021/07/02 03:40:57;;;;;;;14.03;9.47;;;12.20;99.90;;;;;;4862814;29;20555;-74
2021/07/02 03:43:26;;;;;;;19.00;9.37;;;12.30;99.90;;;;;;4846202;29;20460;-74
2021/07/02 03:45:54;;;;;;;17.73;10.77;;;12.30;99.90;;;;;;4862531;29;20769;-74
2021/07/02 03:48:21;;;;;;;21.27;11.70;;;12.30;99.90;;;;;;4827340;29;20524;-74
2021/07/02 03:50:51;;;;;;;13.57;10.40;;;12.20;99.90;;;;;;4844235;29;20533;-74
2021/07/02 03:53:19;;;;;;;21.23;10.30;;;12.30;99.90;;;;;;4827579;29;20508;-74
2021/07/02 03:55:46;;;;;;;19.00;11.07;;;12.20;99.90;;;;;;4844159;29;20436;-74
2021/07/02 03:58:12;;;;;;;15.50;11.10;;;12.30;99.90;;;;;;4843423;29;20465;-74
2021/07/02 04:00:39;;;;;;;16.10;10.00;;;12.30;99.90;;;;;;4844067;29;20472;-74
2021/07/02 04:03:06;;;;;;;23.77;11.77;;;12.30;99.90;;;;;;4860067;29;21005;-74
2021/07/02 04:05:33;;;;;;;17.00;11.97;;;12.30;99.90;;;;;;4862471;29;20519;-74
2021/07/02 04:08:00;;;;;;;20.40;11.90;;;12.30;99.90;;;;;;4861323;29;20996;-74
2021/07/02 04:10:27;;;;;;;21.30;12.43;;;12.30;99.90;;;;;;4862668;29;20784;-74
2021/07/02 04:12:54;;;;;;;20.87;11.60;;;12.40;99.90;;;;;;4861778;29;20468;-74
2021/07/02 04:15:21;;;;;;;22.03;12.50;;;12.30;99.90;;;;;;4862024;29;20544;-74
2021/07/02 04:17:48;;;;;;;20.77;12.60;;;12.40;99.90;;;;;;4842904;29;20473;-74
2021/07/02 04:20:15;;;;;;;21.47;13.27;;;12.50;99.90;;;;;;4843795;29;20473;-74
2021/07/02 04:22:42;;;;;;;26.10;13.60;;;12.50;99.90;;;;;;4845782;29;20491;-74
2021/07/02 04:25:10;;;;;;;17.50;12.00;;;12.60;99.90;;;;;;4861759;29;20786;-74
2021/07/02 04:27:38;;;;;;;16.90;12.03;;;12.60;99.90;;;;;;4844801;29;20456;-74
2021/07/02 04:30:06;;;;;;;18.30;12.03;;;12.70;99.90;;;;;;4845061;29;20562;-74
2021/07/02 04:32:35;;;;;;;19.63;12.77;;;12.80;99.90;;;;;;4861295;29;20477;-74
2021/07/02 04:35:06;;;;;;;21.33;13.20;;;12.80;99.90;;;;;;4862095;29;20429;-74
2021/07/02 04:37:33;;;;;;;24.20;13.10;;;12.80;99.90;;;;;;4860640;29;20471;-74
2021/07/02 04:40:01;;;;;;;18.10;12.13;;;12.90;99.90;;;;;;4842485;29;20470;-74
2021/07/02 04:42:28;;;;;;;24.63;13.77;;;13.00;99.90;;;;;;4842709;29;20482;-73
2021/07/02 04:44:55;;;;;;;22.87;13.67;;;13.10;99.90;;;;;;4843495;29;20466;-74
2021/07/02 04:47:22;;;;;;;24.10;13.90;;;13.20;99.90;;;;;;4844999;29;20834;-74
2021/07/02 04:49:49;;;;;;;20.60;13.60;;;13.30;99.90;;;;;;4845607;29;20486;-74
2021/07/02 04:52:16;;;;;;;14.80;12.00;;;13.40;99.90;;;;;;4861294;29;20480;-73
2021/07/02 04:54:43;;;;;;;24.80;14.13;;;13.60;99.90;;;;;;4861373;29;20909;-73
2021/07/02 04:57:10;;;;;;;17.50;13.27;;;13.60;99.90;;;;;;4860844;29;20458;-73
2021/07/02 04:59:39;;;;;;;22.53;13.50;;;13.70;99.90;;;;;;4861542;29;20951;-74
2021/07/02 05:02:08;;;;;;;15.43;10.90;;;13.70;99.90;;;;;;4860507;29;20487;-73
2021/07/02 05:04:39;;;;;;;16.47;11.63;;;13.90;99.90;;;;;;4861546;29;20431;-73
2021/07/02 05:07:07;;;;;;;14.17;10.57;;;13.90;99.90;;;;;;4860845;29;20875;-73
2021/07/02 05:09:35;;;;;;;16.40;10.60;;;14.00;99.90;;;;;;4860742;29;20452;-73
2021/07/02 05:12:05;;;;;;;16.37;10.40;;;14.10;99.90;;;;;;4859762;29;21017;-73
2021/07/02 05:14:33;;;;;;;18.10;11.00;;;14.20;99.90;;;;;;4861231;29;20488;-73
2021/07/02 05:17:02;;;;;;;16.70;11.77;;;14.20;99.90;;;;;;4858886;29;20464;-73
2021/07/02 05:19:29;;;;;;;16.17;11.00;;;14.30;99.90;;;;;;4861181;29;20427;-73
2021/07/02 05:21:56;;;;;;;17.67;10.33;;;14.40;99.90;;;;;;4860668;29;20594;-73
2021/07/02 05:24:23;;;;;;;14.53;11.30;;;14.40;99.90;;;;;;4860575;29;20459;-73
2021/07/02 05:26:49;;;;;;;14.83;10.37;;;14.40;99.90;;;;;;4860528;29;20547;-73
2021/07/02 05:29:17;;;;;;;14.33;9.77;;;14.50;99.90;;;;;;4860639;29;20428;-73
2021/07/02 05:31:44;;;;;;;17.03;10.40;;;14.50;99.90;;;;;;4858869;29;20468;-73
2021/07/02 05:34:11;;;;;;;16.17;9.13;;;14.50;99.90;;;;;;4844676;29;20964;-73
2021/07/02 05:36:38;;;;;;;16.07;10.23;;;14.50;99.90;;;;;;4843178;29;20475;-73
2021/07/02 05:39:05;;;;;;;10.10;8.90;;;14.50;99.90;;;;;;4860059;29;20467;-73
2021/07/02 05:41:32;;;;;;;16.20;8.53;;;14.60;99.90;;;;;;4843875;29;20563;-73
2021/07/02 05:43:59;;;;;;;13.30;9.63;;;14.50;99.90;;;;;;4844271;29;20438;-73
2021/07/02 05:46:26;;;;;;;17.53;9.13;;;14.50;99.90;;;;;;4854625;29;20476;-73
2021/07/02 05:48:53;;;;;;;11.97;8.70;;;14.50;99.90;;;;;;4860573;29;20492;-73
2021/07/02 05:51:20;;;;;;;16.10;9.30;;;14.40;99.90;;;;;;4860712;29;20471;-73
2021/07/02 05:53:46;;;;;;;14.07;9.97;;;14.40;99.90;;;;;;4859907;29;20463;-73
2021/07/02 05:56:13;;;;;;;11.47;8.43;;;14.30;99.90;;;;;;4843384;29;20476;-73
2021/07/02 05:58:40;;;;;;;12.57;7.80;;;14.30;99.90;;;;;;4860223;29;20496;-73
2021/07/02 06:01:07;;;;;;;13.30;9.13;;;14.30;99.90;;;;;;4842994;29;20464;-73
2021/07/02 06:03:34;;;;;;;13.50;9.37;;;14.40;99.90;;;;;;4859011;29;20471;-73
2021/07/02 06:06:18;;;;;;;16.53;10.33;;;14.40;99.90;;;;;;4845481;29;20978;-73
2021/07/02 06:08:45;;;;;;;11.67;9.10;;;14.50;99.90;;;;;;4859741;29;20452;-73
2021/07/02 06:11:12;;;;;;;10.47;8.07;;;14.60;99.90;;;;;;4843278;29;20975;-73
2021/07/02 06:13:39;;;;;;;13.13;8.47;;;14.70;99.90;;;;;;4858921;29;20452;-73
2021/07/02 06:16:07;;;;;;;16.90;9.73;;;14.90;99.90;;;;;;4837318;29;20964;-74
2021/07/02 06:18:35;;;;;;;15.17;9.17;;;15.40;99.90;;;;;;4841514;29;20804;-72
2021/07/02 06:21:02;;;;;;;14.40;8.43;;;15.90;99.90;;;;;;4840938;29;20474;-73
2021/07/02 06:23:35;;;;;;;11.50;9.70;;;16.20;99.90;;;;;;4853786;29;20990;-74
2021/07/02 06:26:03;;;;;;;15.57;8.07;;;16.70;99.90;;;;;;4843048;29;20937;-74
2021/07/02 06:28:31;;;;;;;11.50;7.73;;;16.90;99.90;;;;;;4843076;29;20445;-72
2021/07/02 06:30:58;;;;;;;14.23;7.50;;;17.30;99.90;;;;;;4843041;29;20489;-71
2021/07/02 06:33:26;;;;;;;14.93;7.97;;;17.40;99.90;;;;;;4859400;29;20563;-73
2021/07/02 06:35:53;;;;;;;12.27;8.27;;;17.70;99.90;;;;;;4859536;29;20531;-73
2021/07/02 06:38:20;;;;;;;15.53;8.30;;;17.90;99.90;;;;;;4842273;29;20450;-73
2021/07/02 06:40:47;;;;;;;11.87;7.87;;;17.90;99.90;;;;;;4859770;29;20477;-73
2021/07/02 06:43:15;;;;;;;10.83;7.33;;;17.80;99.90;;;;;;4859156;29;20850;-73
2021/07/02 06:45:42;;;;;;;10.40;6.73;;;17.70;99.90;;;;;;4859845;29;20452;-73
2021/07/02 06:48:09;;;;;;;12.13;7.70;;;17.60;99.90;;;;;;4857148;29;20481;-73
2021/07/02 06:50:40;;;;;;;14.70;6.53;;;17.70;99.90;;;;;;4859704;29;20481;-73
2021/07/02 06:53:07;;;;;;;11.53;7.30;;;17.80;99.90;;;;;;4858730;29;20484;-73
2021/07/02 06:55:34;;;;;;;7.97;6.40;;;17.90;99.90;;;;;;4859651;29;20438;-73
2021/07/02 06:58:03;;;;;;;9.40;6.83;;;17.90;99.90;;;;;;4858844;29;20481;-73
2021/07/02 07:00:31;;;;;;;10.53;7.20;;;17.70;99.90;;;;;;4859449;29;20831;-73
2021/07/02 07:02:58;;;;;;;11.40;7.57;;;17.70;99.90;;;;;;4858489;29;20489;-73
2021/07/02 07:05:24;;;;;;;9.47;6.70;;;17.60;99.90;;;;;;4843024;29;20435;-73
2021/07/02 07:07:52;;;;;;;10.40;6.77;;;17.80;99.90;;;;;;4858240;29;20481;-73
2021/07/02 07:10:19;;;;;;;8.57;7.30;;;17.70;99.90;;;;;;4859534;29;20494;-73
2021/07/02 07:12:46;;;;;;;11.90;7.97;;;17.80;99.90;;;;;;4858805;29;20460;-73
2021/07/02 07:15:14;;;;;;;10.97;6.63;;;17.60;99.90;;;;;;4843000;29;20494;-73
2021/07/02 07:17:41;;;;;;;11.33;7.83;;;17.70;99.90;;;;;;4857476;29;20577;-72
2021/07/02 07:20:09;;;;;;;10.73;6.60;;;17.80;99.90;;;;;;4859283;29;20446;-72
2021/07/02 07:22:36;;;;;;;9.80;6.83;;;17.80;99.90;;;;;;4858347;29;20477;-72
2021/07/02 07:25:04;;;;;;;12.70;7.40;;;18.00;99.90;;;;;;4859298;29;20779;-72
2021/07/02 07:27:32;;;;;;;9.63;7.03;;;17.90;99.90;;;;;;4858443;29;20471;-72
2021/07/02 07:30:00;;;;;;;10.33;7.33;;;18.00;99.90;;;;;;4859114;29;20499;-72
2021/07/02 07:32:27;;;;;;;10.50;6.93;;;18.10;99.90;;;;;;4858448;29;20488;-72
2021/07/02 07:34:57;;;;;;;19.00;9.67;;;18.20;99.90;;;;;;4858034;29;20432;-72
2021/07/02 07:37:27;;;;;;;16.27;8.70;;;18.20;99.90;;;;;;4858282;29;20475;-72
2021/07/02 07:39:54;;;;;;;13.53;8.90;;;18.30;99.90;;;;;;4839990;29;20444;-72
2021/07/02 07:42:20;;;;;;;10.40;7.93;;;18.20;99.90;;;;;;4840235;29;20477;-72
2021/07/02 07:44:47;;;;;;;9.57;7.20;;;18.20;99.90;;;;;;4843294;29;20475;-72
2021/07/02 07:47:14;;;;;;;9.70;7.10;;;18.20;99.90;;;;;;4823721;29;20502;-72
2021/07/02 07:49:43;;;;;;;9.33;6.50;;;18.20;99.90;;;;;;4839877;29;20453;-72
2021/07/02 07:52:46;;;;;;;8.10;6.47;;;18.20;99.90;;;;;;4839235;29;20889;-72
2021/07/02 07:55:05;;;;;;;9.67;7.40;;;18.40;99.90;;;;;;4839130;29;20474;-72
2021/07/02 07:57:32;;;;;;;14.90;7.77;;;18.40;99.90;;;;;;4837573;29;21002;-72
2021/07/02 07:59:59;;;;;;;9.03;7.30;;;18.30;99.90;;;;;;4854924;29;20446;-72
2021/07/02 08:02:26;;;;;;;8.10;6.67;;;18.40;99.90;;;;;;4839384;29;21021;-72
2021/07/02 08:04:53;;;;;;;8.10;6.50;;;18.30;99.90;;;;;;4844060;29;20507;-72
2021/07/02 08:07:20;;;;;;;9.43;7.40;;;18.50;99.20;;;;;;4843070;29;20482;-72
2021/07/02 08:09:47;;;;;;;11.80;7.10;;;18.40;99.80;;;;;;4862143;29;20439;-72
2021/07/02 08:12:13;;;;;;;14.50;8.00;;;18.50;99.30;;;;;;4861706;29;20490;-72
2021/07/02 08:14:41;;;;;;;11.03;8.10;;;18.40;99.60;;;;;;4862358;29;20525;-72
2021/07/02 08:17:07;;;;;;;10.57;6.67;;;18.40;99.30;;;;;;4859685;29;20478;-72
2021/07/02 08:19:34;;;;;;;8.23;6.10;;;18.40;99.90;;;;;;4845894;29;20464;-72
2021/07/02 08:22:02;;;;;;;10.57;7.00;;;18.60;98.40;;;;;;4860100;29;20488;-72
2021/07/02 08:24:29;;;;;;;11.13;6.50;;;18.70;97.80;;;;;;4861116;29;20817;-71
2021/07/02 08:26:57;;;;;;;12.90;7.10;;;18.60;97.20;;;;;;4844668;29;20508;-72
2021/07/02 08:29:28;;;;;;;8.00;6.43;;;18.60;99.90;;;;;;4845317;29;20443;-72
2021/07/02 08:31:56;;;;;;;8.63;6.17;;;18.60;99.90;;;;;;4859497;29;20495;-72
2021/07/02 08:34:23;;;;;;;9.30;7.77;;;18.80;98.80;;;;;;4861620;29;20487;-72
2021/07/02 08:36:51;;;;;;;8.80;6.70;;;18.70;98.60;;;;;;4861517;29;20467;-72
2021/07/02 08:39:18;;;;;;;10.97;8.00;;;18.70;98.80;;;;;;4856939;29;20452;-72
2021/07/02 08:41:46;;;;;;;10.13;7.27;;;18.60;96.40;;;;;;4842769;29;20568;-72
2021/07/02 08:44:13;;;;;;;9.90;7.60;;;18.70;96.70;;;;;;4843402;29;20434;-72
2021/07/02 08:46:42;;;;;;;10.23;7.20;;;18.80;96.70;;;;;;4854886;29;20472;-72
2021/07/02 08:49:27;;;;;;;12.00;8.90;;;19.00;98.10;;;;;;4862107;29;20798;-71
2021/07/02 08:51:55;;;;;;;13.87;10.30;;;19.50;95.80;;;;;;4861143;29;20481;-72
2021/07/02 08:54:22;;;;;;;17.17;11.37;;;19.50;95.20;;;;;;4860656;29;20465;-72
2021/07/02 08:56:58;;;;;;;12.17;9.33;;;19.80;92.20;;;;;;4860520;29;20998;-72
2021/07/02 08:59:29;;;;;;;14.20;8.53;;;19.80;94.90;;;;;;4859504;29;20931;-72
2021/07/02 09:01:57;;;;;;;14.10;10.10;;;19.90;96.20;;;;;;4860479;29;20504;-72
2021/07/02 09:04:26;;;;;;;11.60;9.23;;;20.10;95.00;;;;;;4861520;29;20437;-69
2021/07/02 09:07:02;;;;;;;11.23;8.57;;;20.20;95.10;;;;;;4850199;29;20516;-69
2021/07/02 09:09:59;;;;;;;11.97;8.40;;;20.20;94.00;;;;;;4859564;29;20555;-71
2021/07/02 09:12:31;;;;;;;14.77;8.90;;;20.10;92.20;;;;;;4860715;29;20536;-71
2021/07/02 09:15:06;;;;;;;9.90;8.20;;;20.10;91.60;;;;;;4841403;29;20537;-72
2021/07/02 09:17:51;;;;;;;10.00;7.93;;;20.00;91.30;;;;;;4858508;29;20986;-71
2021/07/02 09:20:32;;;;;;;10.70;9.30;;;19.90;91.80;;;;;;4861265;29;20798;-71
2021/07/02 09:23:02;;;;;;;11.33;9.03;;;20.00;92.70;;;;;;4860163;29;20477;-71
2021/07/02 09:25:36;;;;;;;17.90;10.60;;;20.10;90.00;;;;;;4861124;29;20955;-71
2021/07/02 09:28:11;;;;;;;10.50;9.00;;;20.10;91.20;;;;;;4860018;29;20480;-71
2021/07/02 09:30:49;;;;;;;13.03;8.17;;;20.10;90.80;;;;;;4844014;29;20903;-71
2021/07/02 09:33:18;;;;;;;10.47;7.30;;;20.20;87.20;;;;;;4860653;29;20485;-71
2021/07/02 09:35:47;;;;;;;10.37;7.60;;;20.20;85.00;;;;;;4860958;29;20429;-71
2021/07/02 09:38:17;;;;;;;12.03;7.80;;;20.10;87.90;;;;;;4839565;29;20500;-71
2021/07/02 09:40:48;;;;;;;13.63;8.43;;;20.00;89.70;;;;;;4842214;29;20448;-71
2021/07/02 09:43:17;;;;;;;13.30;10.50;;;19.90;87.90;;;;;;4841693;29;21068;-71
2021/07/02 09:45:50;;;;;;;12.13;8.13;;;19.90;89.60;;;;;;4845953;29;20454;-71
2021/07/02 09:48:19;;;;;;;11.23;8.40;;;19.80;90.30;;;;;;4859848;29;21153;-71
2021/07/02 09:50:50;;;;;;;9.97;8.63;;;19.90;90.20;;;;;;4844104;29;20432;-71
2021/07/02 09:53:20;;;;;;;14.00;8.57;;;19.90;91.60;;;;;;4859838;29;21022;-71
2021/07/02 09:55:51;;;;;;;13.50;8.97;;;19.80;92.50;;;;;;4860563;29;20965;-71
2021/07/02 09:58:24;;;;;;;9.73;8.60;;;19.90;91.50;;;;;;4843582;29;20467;-71
2021/07/02 10:00:52;;;;;;;9.67;7.83;;;20.10;92.30;;;;;;4860511;29;20953;-71
2021/07/02 10:03:24;;;;;;;10.93;7.93;;;20.30;90.00;;;;;;4859689;29;20568;-71
2021/07/02 10:06:06;;;;;;;9.20;7.23;;;20.50;89.20;;;;;;4860457;29;20438;-71
2021/07/02 10:08:38;;;;;;;9.77;7.87;;;20.70;90.10;;;;;;4859556;29;20478;-71
2021/07/02 10:11:10;;;;;;;8.43;7.63;;;20.70;87.00;;;;;;4859729;29;20943;-71
2021/07/02 10:13:42;;;;;;;12.93;7.33;;;20.70;83.40;;;;;;4848411;29;20552;-71
2021/07/02 10:16:11;;;;;;;10.10;7.90;;;20.80;82.40;;;;;;4859052;29;20441;-71
2021/07/02 10:18:49;;;;;;;8.80;7.93;;;21.00;87.50;;;;;;4843631;29;20437;-71
2021/07/02 10:21:19;;;;;;;10.70;7.50;;;21.10;90.30;;;;;;4843002;29;20990;-71
2021/07/02 10:23:48;;;;;;;9.03;7.57;;;21.30;77.60;;;;;;4858445;29;20538;-71
2021/07/02 10:26:17;;;;;;;8.53;7.37;;;21.30;80.00;;;;;;4859465;29;20888;-71
2021/07/02 10:28:44;;;;;;;9.90;8.90;;;21.20;79.80;;;;;;4858653;29;20860;-71
2021/07/02 10:31:12;;;;;;;14.00;8.00;;;21.00;81.40;;;;;;4857857;29;20444;-71
2021/07/02 10:34:00;;;;;;;11.10;6.97;;;20.90;81.30;;;;;;4859629;29;20442;-71
2021/07/02 10:36:37;;;;;;;7.87;6.10;;;20.80;79.30;;;;;;4840900;29;20480;-71
2021/07/02 10:39:04;;;;;;;10.23;6.90;;;20.90;81.00;;;;;;4838012;29;20488;-71
2021/07/02 10:41:32;;;;;;;5.83;4.97;;;20.90;81.10;;;;;;4859178;29;20587;-71
2021/07/02 10:44:11;;;;;;;9.57;5.40;;;21.00;78.50;;;;;;4859949;29;20431;-71
2021/07/02 10:46:47;;;;;;;7.80;5.73;;;21.30;76.10;;;;;;4858539;29;20507;-71
2021/07/02 10:49:18;;;;;;;7.03;5.67;;;21.40;72.30;;;;;;4859617;29;20935;-71
2021/07/02 10:51:48;;;;;;;8.23;6.20;;;21.40;74.70;;;;;;4858037;29;20566;-71
2021/07/02 10:54:16;;;;;;;6.90;5.80;;;21.50;72.00;;;;;;4859151;29;20451;-71
2021/07/02 10:57:00;;;;;;;6.10;5.50;;;21.40;74.60;;;;;;4842835;29;20969;-71
2021/07/02 10:59:45;;;;;;;7.50;5.73;;;21.30;73.10;;;;;;4859344;29;20824;-71
2021/07/02 11:02:22;;;;;;;6.57;4.90;;;21.40;73.60;;;;;;4858542;29;20488;-71
2021/07/02 11:04:54;;;;;;;9.30;7.43;;;21.30;74.90;;;;;;4858550;29;20515;-71
2021/07/02 11:07:27;;;;;;;6.57;5.97;;;21.30;74.70;;;;;;4858232;29;20555;-71
2021/07/02 11:09:57;;;;;;;7.40;6.10;;;21.20;74.90;;;;;;4842122;29;20955;-71
2021/07/02 11:12:31;;;;;;;9.10;6.07;;;21.20;75.60;;;;;;4858857;29;20469;-71
2021/07/02 11:14:58;;;;;;;8.00;5.73;;;21.00;77.50;;;;;;4859497;29;20459;-71
2021/07/02 11:17:33;;;;;;;7.30;6.37;;;21.00;78.30;;;;;;4858203;29;20481;-71
2021/07/02 11:20:13;;;;;;;6.20;5.50;;;21.00;81.30;;;;;;4859437;29;20974;-71
2021/07/02 11:22:52;;;;;;;6.73;5.90;;;21.00;79.50;;;;;;4856483;29;20505;-71
2021/07/02 11:28:32;;;;;;;6.63;6.03;;;21.50;76.30;;;;;;4841556;29;20892;-71
2021/07/02 11:31:08;;;;;;;7.97;5.37;;;21.70;78.00;;;;;;4857858;29;20769;-71
2021/07/02 11:33:36;;;;;;;6.40;5.33;;;21.90;75.80;;;;;;4858083;29;20476;-71
2021/07/02 11:36:03;;;;;;;9.10;6.90;;;22.10;75.70;;;;;;4845100;29;20442;-71
2021/07/02 11:38:50;;;;;;;6.17;5.50;;;22.10;75.90;;;;;;4837177;29;20521;-71
2021/07/02 11:41:42;;;;;;;7.87;5.93;;;22.20;73.30;;;;;;4845135;29;20849;-71
2021/07/02 11:44:09;;;;;;;6.43;4.80;;;22.30;75.00;;;;;;4840795;29;20535;-71
2021/07/02 11:46:36;;;;;;;7.37;6.53;;;22.40;75.00;;;;;;4845773;29;20498;-71
2021/07/02 11:49:05;;;;;;;10.90;6.97;;;22.60;74.60;;;;;;4845989;29;20455;-71
2021/07/02 11:51:33;;;;;;;9.60;6.60;;;22.70;70.50;;;;;;4845116;29;20467;-71
2021/07/02 11:54:03;;;;;;;8.20;6.27;;;22.80;70.70;;;;;;4862312;29;20475;-72
2021/07/02 11:56:35;;;;;;;8.37;6.07;;;22.90;70.80;;;;;;4860897;29;21018;-72
2021/07/02 11:59:14;;;;;;;7.10;6.37;;;23.00;74.90;;;;;;4861073;29;20436;-71
2021/07/02 12:01:45;;;;;;;5.63;5.07;;;22.90;68.90;;;;;;4861915;29;21084;-71
2021/07/02 12:04:31;;;;;;;8.67;6.20;;;22.70;71.80;;;;;;4861338;29;20448;-72
2021/07/02 12:07:07;;;;;;;11.03;6.37;;;22.60;68.90;;;;;;4861812;29;20563;-71
2021/07/02 12:09:43;;;;;;;7.03;5.50;;;22.40;71.30;;;;;;4861309;29;21039;-71
2021/07/02 12:12:19;;;;;;;6.40;5.10;;;22.30;72.10;;;;;;4861477;29;20484;-71
2021/07/02 12:14:49;;;;;;;7.27;6.23;;;22.10;73.70;;;;;;4845691;29;20964;-71
2021/07/02 12:17:19;;;;;;;6.40;5.80;;;22.10;74.50;;;;;;4861160;29;20496;-72
2021/07/02 12:19:46;;;;;;;7.73;6.63;;;22.10;76.80;;;;;;4861190;29;20447;-71
2021/07/02 12:22:13;;;;;;;8.10;5.93;;;22.10;74.00;;;;;;4860296;29;20523;-72
2021/07/02 12:24:46;;;;;;;9.80;7.50;;;22.10;76.30;;;;;;4861781;29;20456;-71
2021/07/02 12:27:20;;;;;;;7.90;6.57;;;22.10;80.00;;;;;;4844602;29;20931;-71
2021/07/02 12:29:59;;;;;;;10.23;6.43;;;22.00;77.10;;;;;;4845591;29;20544;-71
2021/07/02 12:32:28;;;;;;;8.30;6.70;;;22.00;78.20;;;;;;4860931;29;20473;-71
2021/07/02 12:35:08;;;;;;;9.70;6.03;;;22.00;79.60;;;;;;4846260;29;20468;-71
2021/07/02 12:37:38;;;;;;;8.40;6.70;;;22.10;81.90;;;;;;4860636;29;20476;-71
2021/07/02 12:40:08;;;;;;;10.53;7.20;;;22.20;83.00;;;;;;4845754;29;20428;-71
2021/07/02 12:42:38;;;;;;;7.97;7.17;;;22.30;76.50;;;;;;4844726;29;20474;-71
2021/07/02 12:45:13;;;;;;;9.13;8.20;;;22.30;78.60;;;;;;4861014;29;20955;-71
2021/07/02 12:47:42;;;;;;;7.97;6.90;;;22.40;78.50;;;;;;4853078;29;20541;-70
2021/07/02 12:50:17;;;;;;;7.93;7.20;;;22.60;75.60;;;;;;4845098;29;20474;-71
2021/07/02 12:55:42;;;;;;;7.03;6.30;;;22.30;77.20;;;;;;4860294;29;20474;-71